createdAt,value
2018-02-19T00:01:36.513Z,4.28
2018-02-19T00:04:03.106Z,6.37
2018-02-19T00:06:29.684Z,6.15
2018-02-19T00:08:56.284Z,5.20
2018-02-19T00:11:22.924Z,5.80
2018-02-19T00:13:49.495Z,5.25
2018-02-19T00:16:16.646Z,5.68
2018-02-19T00:18:43.236Z,7.70
2018-02-19T00:21:09.867Z,5.25
2018-02-19T00:23:36.522Z,6.35
2018-02-19T00:26:03.146Z,6.18
2018-02-19T00:28:29.779Z,4.43
2018-02-19T00:30:56.426Z,4.87
2018-02-19T00:33:23.001Z,7.03
2018-02-19T00:35:49.598Z,6.47
2018-02-19T00:38:16.180Z,6.18
2018-02-19T00:40:42.859Z,5.60
2018-02-19T00:43:09.439Z,5.15
2018-02-19T00:45:36.033Z,6.57
2018-02-19T00:48:02.625Z,5.18
2018-02-19T00:50:29.285Z,6.47
2018-02-19T00:52:55.944Z,8.38
2018-02-19T00:55:22.586Z,5.70
2018-02-19T00:57:49.230Z,6.47
2018-02-19T01:00:15.858Z,5.65
2018-02-19T01:02:42.483Z,5.65
2018-02-19T01:05:09.134Z,6.80
2018-02-19T01:07:35.716Z,7.60
2018-02-19T01:10:02.405Z,5.60
2018-02-19T01:12:28.979Z,6.32
2018-02-19T01:14:55.776Z,5.87
2018-02-19T01:17:22.416Z,5.68
2018-02-19T01:19:49.043Z,6.30
2018-02-19T01:22:15.620Z,5.43
2018-02-19T01:24:42.210Z,5.72
2018-02-19T01:27:08.802Z,5.10
2018-02-19T01:29:35.393Z,6.28
2018-02-19T01:32:01.975Z,7.30
2018-02-19T01:34:28.655Z,8.55
2018-02-19T01:36:55.259Z,6.57
2018-02-19T01:39:21.931Z,7.12
2018-02-19T01:41:48.516Z,5.93
2018-02-19T01:44:15.211Z,6.18
2018-02-19T01:46:41.857Z,5.80
2018-02-19T01:49:08.479Z,7.55
2018-02-19T01:51:35.074Z,6.00
2018-02-19T01:54:01.763Z,6.15
2018-02-19T01:56:28.339Z,5.85
2018-02-19T01:58:54.919Z,6.68
2018-02-19T02:01:21.509Z,6.50
2018-02-19T02:03:49.036Z,6.65
2018-02-19T02:06:15.626Z,6.22
2018-02-19T02:08:42.213Z,6.18
2018-02-19T02:11:08.823Z,6.80
2018-02-19T02:13:35.414Z,7.12
2018-02-19T02:16:02.010Z,7.22
2018-02-19T02:18:28.607Z,6.62
2018-02-19T02:20:55.745Z,6.12
2018-02-19T02:23:22.339Z,6.30
2018-02-19T02:25:48.938Z,6.22
2018-02-19T02:28:15.584Z,7.50
2018-02-19T02:30:42.222Z,6.93
2018-02-19T02:33:08.870Z,4.95
2018-02-19T02:35:35.445Z,7.93
2018-02-19T02:38:02.043Z,6.78
2018-02-19T02:40:28.663Z,8.27
2018-02-19T02:42:55.239Z,7.18
2018-02-19T02:45:21.835Z,6.97
2018-02-19T02:47:48.416Z,6.93
2018-02-19T02:50:14.992Z,7.32
2018-02-19T02:52:41.659Z,6.70
2018-02-19T02:55:08.251Z,8.02
2018-02-19T02:57:34.846Z,6.62
2018-02-19T03:00:01.425Z,5.37
2018-02-19T03:02:28.134Z,6.10
2018-02-19T03:04:54.738Z,6.03
2018-02-19T03:07:21.329Z,6.00
2018-02-19T03:09:48.749Z,6.60
2018-02-19T03:12:15.329Z,5.32
2018-02-19T03:14:41.904Z,7.35
2018-02-19T03:17:08.483Z,5.78
2018-02-19T03:19:35.168Z,7.45
2018-02-19T03:22:01.807Z,6.78
2018-02-19T03:24:28.383Z,6.78
2018-02-19T03:26:54.971Z,8.95
2018-02-19T03:29:21.616Z,6.87
2018-02-19T03:31:48.183Z,7.18
2018-02-19T03:34:14.790Z,10.07
2018-02-19T03:36:41.388Z,5.93
2018-02-19T03:39:08.053Z,5.30
2018-02-19T03:41:34.646Z,6.95
2018-02-19T03:44:01.316Z,8.55
2018-02-19T03:46:27.965Z,6.45
2018-02-19T03:48:54.588Z,6.18
2018-02-19T03:51:21.237Z,6.97
2018-02-19T03:53:47.830Z,7.40
2018-02-19T03:56:14.422Z,5.43
2018-02-19T03:58:41.009Z,7.85
2018-02-19T04:01:07.588Z,9.30
2018-02-19T04:03:34.208Z,8.70
2018-02-19T04:06:00.813Z,6.78
2018-02-19T04:08:27.406Z,5.80
2018-02-19T04:10:54.026Z,4.75
2018-02-19T04:13:20.627Z,7.30
2018-02-19T04:15:47.298Z,7.35
2018-02-19T04:18:13.895Z,4.72
2018-02-19T04:20:40.520Z,5.30
2018-02-19T04:23:07.099Z,6.95
2018-02-19T04:25:33.693Z,6.37
2018-02-19T04:28:00.272Z,6.68
2018-02-19T04:30:26.914Z,5.93
2018-02-19T04:32:53.504Z,4.72
2018-02-19T04:35:20.172Z,6.07
2018-02-19T04:37:46.812Z,7.18
2018-02-19T04:40:13.458Z,6.72
2018-02-19T04:42:40.045Z,7.45
2018-02-19T04:45:13.067Z,5.90
2018-02-19T04:47:39.699Z,7.53
2018-02-19T04:50:06.681Z,6.37
2018-02-19T04:52:33.270Z,6.20
2018-02-19T04:54:59.846Z,7.22
2018-02-19T04:57:28.271Z,6.40
2018-02-19T04:59:54.857Z,5.95
2018-02-19T05:02:21.571Z,7.00
2018-02-19T05:04:48.167Z,8.73
2018-02-19T05:07:14.757Z,5.93
2018-02-19T05:09:41.332Z,8.10
2018-02-19T05:12:07.921Z,8.00
2018-02-19T05:14:34.555Z,9.32
2018-02-19T05:17:01.197Z,9.20
2018-02-19T05:19:27.786Z,8.70
2018-02-19T05:21:54.470Z,6.85
2018-02-19T05:24:21.110Z,8.73
2018-02-19T05:26:47.728Z,7.32
2018-02-19T05:29:14.310Z,7.85
2018-02-19T05:31:40.888Z,7.60
2018-02-19T05:34:07.552Z,8.90
2018-02-19T05:36:34.189Z,5.68
2018-02-19T05:39:00.764Z,8.00
2018-02-19T05:41:27.344Z,5.53
2018-02-19T05:43:53.924Z,6.25
2018-02-19T05:46:20.509Z,5.57
2018-02-19T05:48:47.156Z,6.55
2018-02-19T05:51:13.750Z,7.55
2018-02-19T05:53:40.475Z,7.00
2018-02-19T05:56:07.007Z,7.45
2018-02-19T05:58:33.587Z,7.47
2018-02-19T06:01:00.232Z,7.18
2018-02-19T06:03:26.811Z,7.47
2018-02-19T06:05:53.387Z,7.40
2018-02-19T06:08:19.982Z,4.97
2018-02-19T06:10:46.569Z,6.43
2018-02-19T06:13:13.165Z,5.75
2018-02-19T06:15:39.747Z,5.70
2018-02-19T06:18:07.027Z,5.93
2018-02-19T06:20:33.615Z,6.87
2018-02-19T06:23:00.275Z,8.00
2018-02-19T06:25:26.864Z,5.70
2018-02-19T06:27:53.448Z,5.57
2018-02-19T06:30:20.693Z,8.52
2018-02-19T06:32:47.287Z,6.22
2018-02-19T06:35:13.873Z,6.05
2018-02-19T06:37:40.463Z,6.30
2018-02-19T06:40:07.043Z,5.30
2018-02-19T06:42:33.630Z,5.25
2018-02-19T06:45:00.217Z,6.62
2018-02-19T06:47:26.804Z,6.43
2018-02-19T06:49:53.380Z,7.18
2018-02-19T06:52:19.960Z,5.93
2018-02-19T06:54:47.381Z,4.50
2018-02-19T06:57:13.979Z,5.07
2018-02-19T06:59:43.512Z,5.70
2018-02-19T07:02:10.107Z,4.65
2018-02-19T07:04:36.684Z,5.15
2018-02-19T07:07:03.269Z,5.78
2018-02-19T07:09:29.864Z,4.87
2018-02-19T07:11:56.450Z,4.90
2018-02-19T07:14:23.121Z,7.18
2018-02-19T07:16:49.770Z,5.60
2018-02-19T07:19:16.637Z,4.15
2018-02-19T07:21:43.215Z,3.55
2018-02-19T07:24:09.875Z,6.60
2018-02-19T07:26:36.525Z,6.30
2018-02-19T07:29:03.044Z,4.80
2018-02-19T07:31:29.680Z,5.53
2018-02-19T07:33:56.329Z,6.25
2018-02-19T07:36:22.977Z,5.97
2018-02-19T07:38:49.598Z,5.75
2018-02-19T07:41:16.690Z,5.90
2018-02-19T07:43:43.286Z,5.60
2018-02-19T07:46:09.921Z,5.80
2018-02-19T07:48:36.557Z,6.72
2018-02-19T07:51:03.150Z,5.82
2018-02-19T07:53:29.767Z,3.95
2018-02-19T07:55:56.336Z,5.55
2018-02-19T07:58:22.908Z,4.80
2018-02-19T08:00:49.487Z,7.10
2018-02-19T08:03:16.069Z,5.20
2018-02-19T08:05:42.640Z,5.05
2018-02-19T08:08:09.238Z,5.32
2018-02-19T08:10:35.826Z,6.40
2018-02-19T08:13:02.419Z,5.07
2018-02-19T08:15:29.058Z,8.20
2018-02-19T08:17:55.699Z,5.75
2018-02-19T08:20:22.279Z,7.43
2018-02-19T08:22:48.960Z,4.68
2018-02-19T08:25:15.558Z,5.32
2018-02-19T08:27:42.133Z,4.72
2018-02-19T08:30:08.731Z,4.90
2018-02-19T08:32:35.319Z,5.55
2018-02-19T08:35:01.925Z,6.10
2018-02-19T08:37:28.496Z,6.05
2018-02-19T08:39:55.086Z,5.72
2018-02-19T08:42:21.746Z,4.78
2018-02-19T08:44:48.677Z,5.87
2018-02-19T08:47:15.221Z,4.28
2018-02-19T08:49:41.821Z,5.82
2018-02-19T08:52:08.499Z,6.78
2018-02-19T08:54:35.072Z,5.22
2018-02-19T08:57:01.768Z,5.07
2018-02-19T08:59:28.362Z,5.35
2018-02-19T09:01:54.936Z,4.55
2018-02-19T09:04:22.178Z,4.22
2018-02-19T09:06:48.834Z,4.85
2018-02-19T09:09:15.404Z,5.07
2018-02-19T09:11:42.002Z,5.62
2018-02-19T09:14:08.596Z,4.60
2018-02-19T09:16:35.177Z,6.30
2018-02-19T09:19:01.775Z,5.12
2018-02-19T09:21:28.374Z,4.75
2018-02-19T09:23:54.951Z,6.97
2018-02-19T09:26:21.616Z,6.53
2018-02-19T09:28:48.190Z,6.78
2018-02-19T09:31:14.801Z,6.15
2018-02-19T09:33:41.418Z,5.43
2018-02-19T09:36:08.001Z,7.03
2018-02-19T09:38:34.594Z,5.05
2018-02-19T09:41:01.194Z,4.90
2018-02-19T09:43:27.860Z,5.05
2018-02-19T09:45:54.440Z,4.75
2018-02-19T09:48:21.026Z,4.20
2018-02-19T09:50:47.657Z,6.53
2018-02-19T09:53:14.299Z,5.15
2018-02-19T09:55:40.935Z,3.60
2018-02-19T09:58:07.511Z,4.85
2018-02-19T10:00:34.123Z,5.12
2018-02-19T10:03:00.691Z,5.00
2018-02-19T10:05:27.280Z,4.90
2018-02-19T10:07:53.907Z,5.93
2018-02-19T10:10:20.506Z,5.12
2018-02-19T10:12:47.084Z,4.78
2018-02-19T10:15:13.663Z,3.97
2018-02-19T10:17:40.250Z,5.55
2018-02-19T10:20:06.841Z,5.80
2018-02-19T10:22:33.503Z,5.80
2018-02-19T10:25:00.164Z,8.10
2018-02-19T10:27:26.810Z,6.03
2018-02-19T10:29:53.441Z,4.20
2018-02-19T10:32:20.033Z,6.35
2018-02-19T10:34:47.145Z,5.85
2018-02-19T10:37:13.766Z,4.68
2018-02-19T10:39:40.360Z,6.00
2018-02-19T10:42:07.023Z,7.05
2018-02-19T10:44:33.618Z,7.28
2018-02-19T10:47:00.199Z,5.68
2018-02-19T10:49:26.842Z,6.65
2018-02-19T10:51:53.512Z,5.87
2018-02-19T10:54:20.094Z,5.65
2018-02-19T10:56:47.154Z,5.97
2018-02-19T10:59:13.802Z,7.00
2018-02-19T11:01:40.372Z,5.37
2018-02-19T11:04:07.080Z,4.85
2018-02-19T11:06:33.709Z,6.15
2018-02-19T11:09:00.332Z,5.60
2018-02-19T11:11:26.934Z,5.85
2018-02-19T11:13:53.619Z,5.50
2018-02-19T11:16:20.226Z,5.80
2018-02-19T11:18:46.894Z,5.75
2018-02-19T11:21:13.512Z,3.62
2018-02-19T11:23:40.099Z,5.68
2018-02-19T11:26:06.801Z,6.62
2018-02-19T11:28:33.438Z,4.85
2018-02-19T11:31:00.014Z,5.90
2018-02-19T11:33:27.454Z,5.43
2018-02-19T11:35:54.066Z,4.15
2018-02-19T11:38:20.646Z,6.30
2018-02-19T11:40:47.271Z,5.75
2018-02-19T11:43:13.858Z,6.35
2018-02-19T11:45:40.436Z,6.18
2018-02-19T11:48:07.044Z,5.32
2018-02-19T11:50:33.664Z,5.10
2018-02-19T11:53:00.746Z,5.68
2018-02-19T11:55:27.316Z,6.40
2018-02-19T11:57:53.937Z,5.62
2018-02-19T12:00:20.512Z,5.53
2018-02-19T12:02:47.166Z,6.82
2018-02-19T12:05:13.791Z,8.07
2018-02-19T12:07:40.388Z,6.47
2018-02-19T12:10:06.964Z,5.78
2018-02-19T12:12:33.604Z,4.93
2018-02-19T12:15:00.260Z,5.03
2018-02-19T12:17:26.832Z,5.70
2018-02-19T12:19:53.517Z,4.68
2018-02-19T12:22:20.115Z,6.50
2018-02-19T12:24:47.296Z,4.70
2018-02-19T12:27:13.945Z,4.75
2018-02-19T12:29:40.582Z,6.97
2018-02-19T12:32:07.208Z,6.15
2018-02-19T12:34:33.839Z,4.22
2018-02-19T12:37:00.490Z,5.25
2018-02-19T12:39:27.064Z,5.30
2018-02-19T12:41:53.656Z,4.07
2018-02-19T12:44:20.240Z,4.35
2018-02-19T12:46:46.829Z,4.60
2018-02-19T12:49:13.474Z,4.30
2018-02-19T12:51:40.102Z,5.18
2018-02-19T12:54:06.886Z,5.28
2018-02-19T12:56:33.573Z,5.57
2018-02-19T12:59:00.150Z,4.57
2018-02-19T13:01:26.724Z,7.93
2018-02-19T13:03:53.300Z,5.10
2018-02-19T13:06:19.898Z,4.40
2018-02-19T13:08:47.194Z,4.15
2018-02-19T13:11:13.790Z,4.97
2018-02-19T13:13:40.378Z,6.05
2018-02-19T13:16:06.982Z,4.45
2018-02-19T13:18:33.609Z,5.10
2018-02-19T13:21:00.202Z,5.50
2018-02-19T13:23:27.664Z,5.20
2018-02-19T13:25:54.244Z,6.18
2018-02-19T13:28:20.824Z,4.93
2018-02-19T13:30:47.504Z,4.72
2018-02-19T13:33:14.102Z,6.03
2018-02-19T13:35:40.691Z,4.85
2018-02-19T13:38:07.268Z,5.75
2018-02-19T13:40:33.961Z,8.32
2018-02-19T13:43:00.588Z,4.68
2018-02-19T13:45:27.179Z,5.07
2018-02-19T13:47:53.756Z,6.30
2018-02-19T13:50:20.396Z,4.50
2018-02-19T13:52:46.990Z,6.57
2018-02-19T13:55:13.592Z,6.35
2018-02-19T13:57:40.204Z,6.43
2018-02-19T14:00:06.784Z,5.22
2018-02-19T14:02:33.377Z,6.15
2018-02-19T14:05:00.008Z,5.78
2018-02-19T14:07:27.468Z,6.00
2018-02-19T14:09:54.108Z,6.95
2018-02-19T14:12:21.464Z,4.85
2018-02-19T14:14:48.043Z,5.70
2018-02-19T14:17:14.741Z,6.35
2018-02-19T14:19:42.318Z,5.40
2018-02-19T14:22:09.039Z,6.05
2018-02-19T14:24:35.677Z,6.35
2018-02-19T14:27:02.311Z,6.53
2018-02-19T14:29:28.898Z,7.55
2018-02-19T14:31:55.568Z,6.40
2018-02-19T14:34:22.216Z,6.55
2018-02-19T14:36:48.818Z,5.95
2018-02-19T14:39:15.398Z,7.43
2018-02-19T14:41:42.015Z,6.47
2018-02-19T14:44:08.614Z,4.55
2018-02-19T14:46:35.217Z,4.68
2018-02-19T14:49:01.838Z,7.43
2018-02-19T14:51:28.484Z,7.45
2018-02-19T14:53:55.096Z,8.38
2018-02-19T14:56:21.746Z,8.40
2018-02-19T14:58:48.335Z,7.40
2018-02-19T15:01:14.915Z,5.22
2018-02-19T15:03:41.643Z,6.25
2018-02-19T15:06:08.225Z,7.15
2018-02-19T15:08:34.831Z,6.37
2018-02-19T15:11:01.435Z,7.45
2018-02-19T15:13:28.102Z,5.80
2018-02-19T15:15:54.679Z,5.22
2018-02-19T15:18:21.269Z,4.62
2018-02-19T15:20:47.861Z,4.90
2018-02-19T15:23:14.446Z,6.40
2018-02-19T15:25:41.082Z,5.97
2018-02-19T15:28:07.699Z,6.70
2018-02-19T15:30:34.276Z,4.75
2018-02-19T15:33:01.294Z,5.78
2018-02-19T15:35:27.868Z,5.03
2018-02-19T15:37:54.552Z,5.78
2018-02-19T15:40:21.150Z,4.90
2018-02-19T15:42:47.823Z,6.07
2018-02-19T15:45:14.473Z,4.90
2018-02-19T15:47:41.056Z,5.80
2018-02-19T15:50:07.737Z,3.60
2018-02-19T15:52:34.376Z,6.05
2018-02-19T15:55:00.970Z,4.07
2018-02-19T15:57:28.549Z,5.85
2018-02-19T15:59:55.144Z,7.93
2018-02-19T16:02:21.712Z,5.20
2018-02-19T16:04:48.307Z,5.37
2018-02-19T16:07:15.684Z,3.90
2018-02-19T16:09:42.280Z,4.75
2018-02-19T16:12:08.854Z,4.28
2018-02-19T16:14:35.545Z,4.95
2018-02-19T16:17:02.129Z,5.60
2018-02-19T16:19:28.703Z,5.65
2018-02-19T16:21:55.344Z,6.03
2018-02-19T16:24:21.988Z,4.28
2018-02-19T16:26:48.569Z,6.65
2018-02-19T16:29:15.162Z,4.78
2018-02-19T16:31:41.754Z,4.82
2018-02-19T16:34:08.438Z,3.78
2018-02-19T16:36:35.012Z,5.40
2018-02-19T16:39:01.595Z,4.68
2018-02-19T16:41:28.239Z,8.68
2018-02-19T16:43:54.886Z,5.15
2018-02-19T16:46:21.506Z,5.72
2018-02-19T16:48:48.081Z,5.95
2018-02-19T16:51:14.664Z,6.45
2018-02-19T16:53:41.247Z,7.05
2018-02-19T16:56:08.764Z,7.90
2018-02-19T16:58:35.708Z,6.78
2018-02-19T17:01:02.288Z,7.18
2018-02-19T17:03:28.906Z,6.85
2018-02-19T17:05:55.486Z,7.65
2018-02-19T17:08:22.078Z,6.82
2018-02-19T17:10:48.806Z,9.20
2018-02-19T17:13:15.418Z,10.85
2018-02-19T17:15:42.068Z,6.85
2018-02-19T17:18:08.660Z,7.82
2018-02-19T17:20:35.244Z,6.45
2018-02-19T17:23:01.840Z,6.68
2018-02-19T17:25:28.424Z,7.82
2018-02-19T17:27:55.158Z,9.10
2018-02-19T17:30:21.742Z,5.93
2018-02-19T17:32:48.762Z,7.00
2018-02-19T17:35:17.058Z,6.18
2018-02-19T17:37:43.796Z,6.82
2018-02-19T17:40:10.371Z,6.57
2018-02-19T17:42:37.200Z,7.15
2018-02-19T17:45:03.782Z,7.57
2018-02-19T17:47:30.359Z,7.43
2018-02-19T17:49:56.958Z,6.15
2018-02-19T17:52:23.554Z,5.85
2018-02-19T17:54:50.131Z,5.15
2018-02-19T17:57:16.732Z,8.73
2018-02-19T17:59:43.325Z,6.45
2018-02-19T18:02:09.903Z,6.95
2018-02-19T18:04:36.502Z,6.82
2018-02-19T18:07:03.076Z,7.87
2018-02-19T18:09:30.050Z,7.95
2018-02-19T18:11:56.736Z,7.65
2018-02-19T18:14:23.822Z,7.50
2018-02-19T18:16:50.441Z,5.62
2018-02-19T18:19:18.440Z,5.57
2018-02-19T18:21:45.054Z,7.32
2018-02-19T18:24:11.693Z,7.37
2018-02-19T18:26:38.268Z,6.53
2018-02-19T18:29:05.624Z,6.57
2018-02-19T18:31:32.838Z,6.97
2018-02-19T18:33:59.459Z,7.07
2018-02-19T18:36:26.044Z,10.20
2018-02-19T18:38:52.724Z,6.18
2018-02-19T18:41:19.539Z,6.47
2018-02-19T18:43:46.350Z,7.10
2018-02-19T18:46:12.952Z,6.68
2018-02-19T18:48:39.601Z,6.15
2018-02-19T18:51:06.235Z,6.20
2018-02-19T18:53:33.729Z,7.72
2018-02-19T18:56:00.322Z,6.97
2018-02-19T18:58:26.910Z,6.00
2018-02-19T19:00:53.596Z,7.28
2018-02-19T19:03:20.168Z,7.62
2018-02-19T19:05:46.766Z,8.73
2018-02-19T19:08:19.431Z,9.73
2018-02-19T19:10:51.004Z,9.10
2018-02-19T19:13:17.594Z,8.65
2018-02-19T19:15:44.373Z,9.05
2018-02-19T19:18:10.970Z,12.20
2018-02-19T19:20:38.869Z,12.43
2018-02-19T19:23:07.074Z,12.50
2018-02-19T19:25:33.664Z,13.10
2018-02-19T19:28:00.247Z,14.43
2018-02-19T19:30:26.948Z,14.23
2018-02-19T19:32:53.532Z,13.95
2018-02-19T19:35:20.226Z,14.07
2018-02-19T19:37:46.819Z,13.82
2018-02-19T19:40:13.416Z,16.35
2018-02-19T19:42:40.017Z,12.50
2018-02-19T19:45:06.605Z,12.27
2018-02-19T19:47:33.202Z,13.35
2018-02-19T19:49:59.850Z,11.55
2018-02-19T19:52:27.173Z,10.45
2018-02-19T19:54:53.827Z,12.10
2018-02-19T19:57:20.761Z,11.68
2018-02-19T19:59:47.404Z,9.75
2018-02-19T20:02:14.002Z,11.23
2018-02-19T20:04:40.585Z,13.52
2018-02-19T20:07:07.226Z,13.90
2018-02-19T20:09:33.812Z,12.37
2018-02-19T20:12:00.397Z,9.85
2018-02-19T20:14:26.998Z,10.20
2018-02-19T20:16:53.628Z,9.88
2018-02-19T20:19:20.191Z,9.32
2018-02-19T20:21:46.803Z,9.82
2018-02-19T20:24:13.470Z,12.20
2018-02-19T20:26:40.815Z,10.20
2018-02-19T20:29:07.425Z,9.55
2018-02-19T20:31:34.000Z,9.82
2018-02-19T20:34:00.620Z,13.75
2018-02-19T20:36:27.256Z,10.70
2018-02-19T20:38:53.888Z,9.55
2018-02-19T20:41:20.490Z,9.25
2018-02-19T20:43:47.800Z,8.07
2018-02-19T20:46:14.398Z,9.90
2018-02-19T20:48:41.055Z,9.93
2018-02-19T20:51:07.773Z,10.93
2018-02-19T20:53:34.357Z,10.35
2018-02-19T20:56:00.944Z,10.63
2018-02-19T20:58:27.538Z,9.55
2018-02-19T21:00:54.453Z,8.82
2018-02-19T21:03:21.240Z,9.95
2018-02-19T21:05:47.781Z,10.95
2018-02-19T21:08:14.394Z,10.55
2018-02-19T21:10:41.104Z,10.52
2018-02-19T21:13:07.680Z,8.65
2018-02-19T21:15:34.255Z,9.43
2018-02-19T21:18:00.906Z,9.88
2018-02-19T21:20:27.488Z,8.45
2018-02-19T21:22:54.114Z,10.65
2018-02-19T21:25:20.693Z,9.60
2018-02-19T21:27:47.288Z,9.13
2018-02-19T21:30:14.900Z,9.27
2018-02-19T21:32:41.494Z,8.85
2018-02-19T21:35:08.181Z,9.13
2018-02-19T21:37:35.462Z,9.10
2018-02-19T21:40:02.060Z,11.10
2018-02-19T21:42:28.635Z,9.18
2018-02-19T21:44:55.224Z,13.10
2018-02-19T21:47:21.868Z,9.23
2018-02-19T21:49:48.463Z,12.10
2018-02-19T21:52:15.057Z,10.45
2018-02-19T21:54:41.679Z,10.68
2018-02-19T21:57:08.366Z,12.02
2018-02-19T21:59:35.056Z,13.68
2018-02-19T22:02:01.650Z,10.57
2018-02-19T22:04:28.243Z,12.25
2018-02-19T22:06:54.859Z,10.65
2018-02-19T22:09:21.607Z,9.00
2018-02-19T22:11:48.250Z,10.73
2018-02-19T22:14:14.872Z,11.20
2018-02-19T22:16:41.508Z,13.23
2018-02-19T22:19:08.092Z,13.13
2018-02-19T22:21:34.714Z,12.00
2018-02-19T22:24:01.307Z,13.98
2018-02-19T22:26:27.892Z,11.90
2018-02-19T22:28:54.489Z,12.57
2018-02-19T22:31:22.064Z,14.45
2018-02-19T22:33:48.658Z,14.93
2018-02-19T22:36:15.247Z,14.02
2018-02-19T22:38:41.845Z,13.82
2018-02-19T22:41:08.438Z,15.40
2018-02-19T22:43:35.133Z,13.98
2018-02-19T22:46:01.768Z,15.65
2018-02-19T22:48:28.352Z,13.40
2018-02-19T22:50:55.878Z,13.18
2018-02-19T22:53:22.464Z,14.10
2018-02-19T22:55:49.044Z,13.95
2018-02-19T22:58:15.665Z,13.55
2018-02-19T23:00:42.266Z,12.40
2018-02-19T23:03:08.879Z,14.20
2018-02-19T23:05:35.481Z,14.05
2018-02-19T23:08:02.114Z,12.75
2018-02-19T23:10:29.474Z,10.80
2018-02-19T23:12:56.047Z,10.15
2018-02-19T23:15:22.636Z,11.85
2018-02-19T23:17:49.246Z,12.00
2018-02-19T23:20:15.841Z,10.88
2018-02-19T23:22:42.431Z,9.90
2018-02-19T23:25:09.071Z,11.45
2018-02-19T23:27:35.711Z,11.80
2018-02-19T23:30:02.358Z,11.15
2018-02-19T23:32:28.980Z,9.15
2018-02-19T23:34:55.567Z,10.82
2018-02-19T23:37:22.269Z,12.15
2018-02-19T23:39:48.886Z,10.25
2018-02-19T23:42:15.471Z,11.45
2018-02-19T23:44:42.073Z,10.38
2018-02-19T23:47:08.668Z,11.82
2018-02-19T23:49:35.243Z,12.43
2018-02-19T23:52:01.837Z,12.93
2018-02-19T23:54:34.343Z,10.60
2018-02-19T23:57:00.929Z,10.95
2018-02-19T23:59:28.626Z,10.80
